sensor_id;sensor_type;location;lat;lon;timestamp;temperature;humidity
10249;DHT22;5169;50.560;9.714;2023-01-13T00:01:25;8.10;99.90
10249;DHT22;5169;50.560;9.714;2023-01-13T00:03:51;8.10;99.90
10249;DHT22;5169;50.560;9.714;2023-01-13T00:06:20;8.10;99.90
10249;DHT22;5169;50.560;9.714;2023-01-13T00:08:51;8.10;99.90
10249;DHT22;5169;50.560;9.714;2023-01-13T00:11:18;8.20;99.90
10249;DHT22;5169;50.560;9.714;2023-01-13T00:13:47;8.20;99.90
10249;DHT22;5169;50.560;9.714;2023-01-13T00:16:15;8.20;99.90
10249;DHT22;5169;50.560;9.714;2023-01-13T00:18:42;8.20;99.90
10249;DHT22;5169;50.560;9.714;2023-01-13T00:21:24;8.10;99.90
10249;DHT22;5169;50.560;9.714;2023-01-13T00:23:54;8.10;99.90
10249;DHT22;5169;50.560;9.714;2023-01-13T00:26:25;8.10;99.90
10249;DHT22;5169;50.560;9.714;2023-01-13T00:28:59;8.20;99.90
10249;DHT22;5169;50.560;9.714;2023-01-13T00:31:26;8.20;99.90
10249;DHT22;5169;50.560;9.714;2023-01-13T00:33:55;8.10;99.90
10249;DHT22;5169;50.560;9.714;2023-01-13T00:36:24;8.20;99.90
10249;DHT22;5169;50.560;9.714;2023-01-13T00:38:50;8.20;99.90
10249;DHT22;5169;50.560;9.714;2023-01-13T00:41:18;8.20;99.90
10249;DHT22;5169;50.560;9.714;2023-01-13T00:43:49;8.20;99.90
10249;DHT22;5169;50.560;9.714;2023-01-13T00:46:17;8.20;99.90
10249;DHT22;5169;50.560;9.714;2023-01-13T00:48:49;8.20;99.90
10249;DHT22;5169;50.560;9.714;2023-01-13T00:51:23;8.20;99.90
10249;DHT22;5169;50.560;9.714;2023-01-13T00:53:50;8.20;99.90
10249;DHT22;5169;50.560;9.714;2023-01-13T00:56:23;8.20;99.90
10249;DHT22;5169;50.560;9.714;2023-01-13T00:58:49;8.20;99.90
10249;DHT22;5169;50.560;9.714;2023-01-13T01:01:23;8.30;99.90
10249;DHT22;5169;50.560;9.714;2023-01-13T01:03:50;8.30;99.90
10249;DHT22;5169;50.560;9.714;2023-01-13T01:06:19;8.30;99.90
10249;DHT22;5169;50.560;9.714;2023-01-13T01:08:51;8.30;99.90
10249;DHT22;5169;50.560;9.714;2023-01-13T01:11:20;8.30;99.90
10249;DHT22;5169;50.560;9.714;2023-01-13T01:13:49;8.30;99.90
10249;DHT22;5169;50.560;9.714;2023-01-13T01:16:18;8.30;99.90
10249;DHT22;5169;50.560;9.714;2023-01-13T01:18:52;8.30;99.90
10249;DHT22;5169;50.560;9.714;2023-01-13T01:21:27;8.30;99.90
10249;DHT22;5169;50.560;9.714;2023-01-13T01:24:00;8.40;99.90
10249;DHT22;5169;50.560;9.714;2023-01-13T01:26:30;8.40;99.90
10249;DHT22;5169;50.560;9.714;2023-01-13T01:29:05;8.40;99.90
10249;DHT22;5169;50.560;9.714;2023-01-13T01:31:32;8.30;99.90
10249;DHT22;5169;50.560;9.714;2023-01-13T01:34:13;8.40;99.90
10249;DHT22;5169;50.560;9.714;2023-01-13T01:36:41;8.40;99.90
10249;DHT22;5169;50.560;9.714;2023-01-13T01:39:08;8.40;99.90
10249;DHT22;5169;50.560;9.714;2023-01-13T01:41:37;8.50;99.90
10249;DHT22;5169;50.560;9.714;2023-01-13T01:47:16;8.40;99.90
10249;DHT22;5169;50.560;9.714;2023-01-13T01:49:51;8.50;99.90
10249;DHT22;5169;50.560;9.714;2023-01-13T01:52:50;8.50;99.90
10249;DHT22;5169;50.560;9.714;2023-01-13T01:55:29;8.50;99.90
10249;DHT22;5169;50.560;9.714;2023-01-13T01:58:25;8.50;99.90
10249;DHT22;5169;50.560;9.714;2023-01-13T02:00:53;8.50;99.90
10249;DHT22;5169;50.560;9.714;2023-01-13T02:03:18;8.50;99.90
10249;DHT22;5169;50.560;9.714;2023-01-13T02:05:51;8.50;99.90
10249;DHT22;5169;50.560;9.714;2023-01-13T02:08:17;8.50;99.90
10249;DHT22;5169;50.560;9.714;2023-01-13T02:10:49;8.50;99.90
10249;DHT22;5169;50.560;9.714;2023-01-13T02:13:19;8.50;99.90
10249;DHT22;5169;50.560;9.714;2023-01-13T02:19:03;8.50;99.90
10249;DHT22;5169;50.560;9.714;2023-01-13T02:30:16;8.50;99.90
10249;DHT22;5169;50.560;9.714;2023-01-13T02:38:38;8.50;99.90
10249;DHT22;5169;50.560;9.714;2023-01-13T02:41:17;8.50;99.90
10249;DHT22;5169;50.560;9.714;2023-01-13T02:44:06;8.50;99.90
10249;DHT22;5169;50.560;9.714;2023-01-13T02:46:55;8.50;99.90
10249;DHT22;5169;50.560;9.714;2023-01-13T02:49:39;8.60;99.90
10249;DHT22;5169;50.560;9.714;2023-01-13T02:52:28;8.60;99.90
10249;DHT22;5169;50.560;9.714;2023-01-13T02:55:08;8.60;99.90
10249;DHT22;5169;50.560;9.714;2023-01-13T02:57:42;8.60;99.90
10249;DHT22;5169;50.560;9.714;2023-01-13T03:00:12;8.60;99.90
10249;DHT22;5169;50.560;9.714;2023-01-13T03:02:39;8.60;99.90
10249;DHT22;5169;50.560;9.714;2023-01-13T03:05:05;8.60;99.90
10249;DHT22;5169;50.560;9.714;2023-01-13T03:16:04;8.50;99.90
10249;DHT22;5169;50.560;9.714;2023-01-13T03:32:42;8.50;99.90
10249;DHT22;5169;50.560;9.714;2023-01-13T03:37:55;8.60;99.90
10249;DHT22;5169;50.560;9.714;2023-01-13T03:40:28;8.60;99.90
10249;DHT22;5169;50.560;9.714;2023-01-13T03:43:13;8.60;99.90
10249;DHT22;5169;50.560;9.714;2023-01-13T03:46:07;8.60;99.90
10249;DHT22;5169;50.560;9.714;2023-01-13T03:48:40;8.70;99.90
10249;DHT22;5169;50.560;9.714;2023-01-13T03:51:13;8.70;99.90
10249;DHT22;5169;50.560;9.714;2023-01-13T03:53:48;8.60;99.90
10249;DHT22;5169;50.560;9.714;2023-01-13T03:56:25;8.70;99.90
10249;DHT22;5169;50.560;9.714;2023-01-13T03:58:53;8.70;99.90
10249;DHT22;5169;50.560;9.714;2023-01-13T04:01:31;8.70;99.90
10249;DHT22;5169;50.560;9.714;2023-01-13T04:04:07;8.70;99.90
10249;DHT22;5169;50.560;9.714;2023-01-13T04:09:53;8.80;99.90
10249;DHT22;5169;50.560;9.714;2023-01-13T04:15:25;8.80;99.90
10249;DHT22;5169;50.560;9.714;2023-01-13T04:17:53;8.80;99.90
10249;DHT22;5169;50.560;9.714;2023-01-13T04:20:19;8.80;99.90
10249;DHT22;5169;50.560;9.714;2023-01-13T04:22:48;8.80;99.90
10249;DHT22;5169;50.560;9.714;2023-01-13T04:25:14;8.80;99.90
10249;DHT22;5169;50.560;9.714;2023-01-13T04:27:39;8.80;99.90
10249;DHT22;5169;50.560;9.714;2023-01-13T04:30:05;8.80;99.90
10249;DHT22;5169;50.560;9.714;2023-01-13T04:32:31;8.80;99.90
10249;DHT22;5169;50.560;9.714;2023-01-13T04:35:00;8.80;99.90
10249;DHT22;5169;50.560;9.714;2023-01-13T04:37:27;8.90;99.90
10249;DHT22;5169;50.560;9.714;2023-01-13T04:39:53;8.90;99.90
10249;DHT22;5169;50.560;9.714;2023-01-13T04:42:19;8.90;99.90
10249;DHT22;5169;50.560;9.714;2023-01-13T04:44:48;8.90;99.90
10249;DHT22;5169;50.560;9.714;2023-01-13T04:47:14;8.90;99.90
10249;DHT22;5169;50.560;9.714;2023-01-13T04:49:39;8.90;99.90
10249;DHT22;5169;50.560;9.714;2023-01-13T04:52:07;8.90;99.90
10249;DHT22;5169;50.560;9.714;2023-01-13T04:54:39;8.90;99.90
10249;DHT22;5169;50.560;9.714;2023-01-13T04:57:05;8.90;99.90
10249;DHT22;5169;50.560;9.714;2023-01-13T04:59:38;8.90;99.90
10249;DHT22;5169;50.560;9.714;2023-01-13T05:02:03;8.90;99.90
10249;DHT22;5169;50.560;9.714;2023-01-13T05:04:39;8.90;99.90
10249;DHT22;5169;50.560;9.714;2023-01-13T05:07:07;8.90;99.90
10249;DHT22;5169;50.560;9.714;2023-01-13T05:09:39;8.80;99.90
10249;DHT22;5169;50.560;9.714;2023-01-13T05:12:07;8.90;99.90
10249;DHT22;5169;50.560;9.714;2023-01-13T05:14:53;8.90;99.90
10249;DHT22;5169;50.560;9.714;2023-01-13T05:17:40;8.80;99.90
10249;DHT22;5169;50.560;9.714;2023-01-13T05:20:07;8.80;99.90
10249;DHT22;5169;50.560;9.714;2023-01-13T05:22:36;8.90;99.90
10249;DHT22;5169;50.560;9.714;2023-01-13T05:25:20;8.90;99.90
10249;DHT22;5169;50.560;9.714;2023-01-13T05:28:07;8.90;99.90
10249;DHT22;5169;50.560;9.714;2023-01-13T05:30:35;8.80;99.90
10249;DHT22;5169;50.560;9.714;2023-01-13T05:33:18;8.70;99.90
10249;DHT22;5169;50.560;9.714;2023-01-13T05:35:47;8.40;99.90
10249;DHT22;5169;50.560;9.714;2023-01-13T05:38:20;8.10;99.90
10249;DHT22;5169;50.560;9.714;2023-01-13T05:40:46;7.90;99.90
10249;DHT22;5169;50.560;9.714;2023-01-13T05:43:30;7.70;99.90
10249;DHT22;5169;50.560;9.714;2023-01-13T05:46:00;7.60;99.90
10249;DHT22;5169;50.560;9.714;2023-01-13T05:51:00;7.40;99.90
10249;DHT22;5169;50.560;9.714;2023-01-13T05:53:35;7.30;99.90
10249;DHT22;5169;50.560;9.714;2023-01-13T05:56:06;7.20;99.90
10249;DHT22;5169;50.560;9.714;2023-01-13T05:58:33;7.30;99.90
10249;DHT22;5169;50.560;9.714;2023-01-13T06:01:00;7.20;99.90
10249;DHT22;5169;50.560;9.714;2023-01-13T06:03:29;7.10;99.90
10249;DHT22;5169;50.560;9.714;2023-01-13T06:05:55;7.00;99.90
10249;DHT22;5169;50.560;9.714;2023-01-13T06:08:25;7.00;99.90
10249;DHT22;5169;50.560;9.714;2023-01-13T06:10:51;7.00;99.90
10249;DHT22;5169;50.560;9.714;2023-01-13T06:13:16;6.90;99.90
10249;DHT22;5169;50.560;9.714;2023-01-13T06:15:45;6.80;99.90
10249;DHT22;5169;50.560;9.714;2023-01-13T06:18:17;6.70;99.90
10249;DHT22;5169;50.560;9.714;2023-01-13T06:20:46;6.70;99.90
10249;DHT22;5169;50.560;9.714;2023-01-13T06:23:11;6.70;99.90
10249;DHT22;5169;50.560;9.714;2023-01-13T06:26:08;6.70;99.90
10249;DHT22;5169;50.560;9.714;2023-01-13T06:28:36;6.70;99.90
10249;DHT22;5169;50.560;9.714;2023-01-13T06:31:07;6.70;99.90
10249;DHT22;5169;50.560;9.714;2023-01-13T06:33:58;6.60;99.90
10249;DHT22;5169;50.560;9.714;2023-01-13T06:36:34;6.70;99.90
10249;DHT22;5169;50.560;9.714;2023-01-13T06:39:05;6.70;99.90
10249;DHT22;5169;50.560;9.714;2023-01-13T06:41:34;6.60;99.90
10249;DHT22;5169;50.560;9.714;2023-01-13T06:44:20;6.60;99.90
10249;DHT22;5169;50.560;9.714;2023-01-13T06:46:46;6.60;99.90
10249;DHT22;5169;50.560;9.714;2023-01-13T06:49:12;6.50;99.90
10249;DHT22;5169;50.560;9.714;2023-01-13T06:51:40;6.60;99.90
10249;DHT22;5169;50.560;9.714;2023-01-13T06:54:06;6.50;99.90
10249;DHT22;5169;50.560;9.714;2023-01-13T06:56:32;6.50;99.90
10249;DHT22;5169;50.560;9.714;2023-01-13T06:58:57;6.60;99.90
10249;DHT22;5169;50.560;9.714;2023-01-13T07:01:23;6.70;99.90
10249;DHT22;5169;50.560;9.714;2023-01-13T07:03:56;6.60;99.90
10249;DHT22;5169;50.560;9.714;2023-01-13T07:06:22;6.70;99.90
10249;DHT22;5169;50.560;9.714;2023-01-13T07:08:48;6.70;99.90
10249;DHT22;5169;50.560;9.714;2023-01-13T07:11:21;6.70;99.90
10249;DHT22;5169;50.560;9.714;2023-01-13T07:13:55;6.80;99.90
10249;DHT22;5169;50.560;9.714;2023-01-13T07:16:42;6.80;99.90
10249;DHT22;5169;50.560;9.714;2023-01-13T07:19:11;6.70;99.90
10249;DHT22;5169;50.560;9.714;2023-01-13T07:21:49;6.80;99.90
10249;DHT22;5169;50.560;9.714;2023-01-13T07:24:18;6.80;99.90
10249;DHT22;5169;50.560;9.714;2023-01-13T07:27:00;6.90;99.90
10249;DHT22;5169;50.560;9.714;2023-01-13T07:29:31;6.90;99.90
10249;DHT22;5169;50.560;9.714;2023-01-13T07:31:57;6.90;99.90
10249;DHT22;5169;50.560;9.714;2023-01-13T07:34:30;6.90;99.90
10249;DHT22;5169;50.560;9.714;2023-01-13T07:36:59;6.80;99.90
10249;DHT22;5169;50.560;9.714;2023-01-13T07:39:25;6.70;99.90
10249;DHT22;5169;50.560;9.714;2023-01-13T07:41:54;6.60;99.90
10249;DHT22;5169;50.560;9.714;2023-01-13T07:44:41;6.60;99.90
10249;DHT22;5169;50.560;9.714;2023-01-13T07:47:07;6.50;99.90
10249;DHT22;5169;50.560;9.714;2023-01-13T07:49:34;6.50;99.90
10249;DHT22;5169;50.560;9.714;2023-01-13T07:52:05;6.60;99.90
10249;DHT22;5169;50.560;9.714;2023-01-13T07:54:31;6.50;99.90
10249;DHT22;5169;50.560;9.714;2023-01-13T07:56:57;6.40;99.90
10249;DHT22;5169;50.560;9.714;2023-01-13T07:59:25;6.40;99.90
10249;DHT22;5169;50.560;9.714;2023-01-13T08:01:56;6.30;99.90
10249;DHT22;5169;50.560;9.714;2023-01-13T08:04:31;6.40;99.90
10249;DHT22;5169;50.560;9.714;2023-01-13T08:06:56;6.40;99.90
10249;DHT22;5169;50.560;9.714;2023-01-13T08:09:22;6.30;99.90
10249;DHT22;5169;50.560;9.714;2023-01-13T08:11:48;6.40;99.90
10249;DHT22;5169;50.560;9.714;2023-01-13T08:14:33;6.40;99.90
10249;DHT22;5169;50.560;9.714;2023-01-13T08:16:59;6.40;99.90
10249;DHT22;5169;50.560;9.714;2023-01-13T08:19:24;6.40;99.90
10249;DHT22;5169;50.560;9.714;2023-01-13T08:21:56;6.40;99.90
10249;DHT22;5169;50.560;9.714;2023-01-13T08:24:24;6.40;99.90
10249;DHT22;5169;50.560;9.714;2023-01-13T08:26:55;6.40;99.90
10249;DHT22;5169;50.560;9.714;2023-01-13T08:29:23;6.30;99.90
10249;DHT22;5169;50.560;9.714;2023-01-13T08:31:58;6.40;99.90
10249;DHT22;5169;50.560;9.714;2023-01-13T08:34:34;6.40;99.90
10249;DHT22;5169;50.560;9.714;2023-01-13T08:37:00;6.50;99.90
10249;DHT22;5169;50.560;9.714;2023-01-13T08:39:31;6.60;99.90
10249;DHT22;5169;50.560;9.714;2023-01-13T08:41:56;6.70;99.90
10249;DHT22;5169;50.560;9.714;2023-01-13T08:44:26;6.80;99.90
10249;DHT22;5169;50.560;9.714;2023-01-13T08:47:00;6.80;99.90
10249;DHT22;5169;50.560;9.714;2023-01-13T08:49:25;6.90;99.90
10249;DHT22;5169;50.560;9.714;2023-01-13T08:51:59;6.90;99.90
10249;DHT22;5169;50.560;9.714;2023-01-13T08:54:30;6.90;99.90
10249;DHT22;5169;50.560;9.714;2023-01-13T08:56:56;7.00;99.90
10249;DHT22;5169;50.560;9.714;2023-01-13T08:59:24;7.00;99.90
10249;DHT22;5169;50.560;9.714;2023-01-13T09:01:49;7.20;99.90
10249;DHT22;5169;50.560;9.714;2023-01-13T09:04:21;7.20;99.90
10249;DHT22;5169;50.560;9.714;2023-01-13T09:06:48;7.20;99.90
10249;DHT22;5169;50.560;9.714;2023-01-13T09:09:22;7.20;99.90
10249;DHT22;5169;50.560;9.714;2023-01-13T09:11:50;7.20;99.90
10249;DHT22;5169;50.560;9.714;2023-01-13T09:14:36;7.20;99.90
10249;DHT22;5169;50.560;9.714;2023-01-13T09:17:02;7.20;99.90
10249;DHT22;5169;50.560;9.714;2023-01-13T09:19:34;7.30;99.90
10249;DHT22;5169;50.560;9.714;2023-01-13T09:21:59;7.30;99.90
10249;DHT22;5169;50.560;9.714;2023-01-13T09:24:25;7.50;99.90
10249;DHT22;5169;50.560;9.714;2023-01-13T09:26:51;7.80;99.90
10249;DHT22;5169;50.560;9.714;2023-01-13T09:29:30;8.90;99.90
10249;DHT22;5169;50.560;9.714;2023-01-13T09:31:56;10.20;99.90
10249;DHT22;5169;50.560;9.714;2023-01-13T09:34:22;11.30;99.90
10249;DHT22;5169;50.560;9.714;2023-01-13T09:37:07;11.90;99.90
10249;DHT22;5169;50.560;9.714;2023-01-13T09:39:34;11.70;99.90
10249;DHT22;5169;50.560;9.714;2023-01-13T09:42:25;11.10;99.90
10249;DHT22;5169;50.560;9.714;2023-01-13T09:45:21;10.60;99.90
10249;DHT22;5169;50.560;9.714;2023-01-13T09:48:00;10.10;99.90
10249;DHT22;5169;50.560;9.714;2023-01-13T09:53:26;10.00;99.90
10249;DHT22;5169;50.560;9.714;2023-01-13T09:56:00;9.90;99.90
10249;DHT22;5169;50.560;9.714;2023-01-13T09:58:31;9.50;99.90
10249;DHT22;5169;50.560;9.714;2023-01-13T10:04:02;8.70;99.90
10249;DHT22;5169;50.560;9.714;2023-01-13T10:06:37;8.40;99.90
10249;DHT22;5169;50.560;9.714;2023-01-13T10:09:04;8.30;99.90
10249;DHT22;5169;50.560;9.714;2023-01-13T10:11:43;8.20;99.90
10249;DHT22;5169;50.560;9.714;2023-01-13T10:14:53;8.10;99.90
10249;DHT22;5169;50.560;9.714;2023-01-13T10:17:54;8.00;99.90
10249;DHT22;5169;50.560;9.714;2023-01-13T10:21:00;7.90;99.90
10249;DHT22;5169;50.560;9.714;2023-01-13T10:29:23;7.90;99.90
10249;DHT22;5169;50.560;9.714;2023-01-13T10:31:50;7.90;99.90
10249;DHT22;5169;50.560;9.714;2023-01-13T10:34:20;7.90;99.90
10249;DHT22;5169;50.560;9.714;2023-01-13T10:39:25;7.90;99.90
10249;DHT22;5169;50.560;9.714;2023-01-13T10:42:11;8.00;99.90
10249;DHT22;5169;50.560;9.714;2023-01-13T10:44:56;8.00;99.90
10249;DHT22;5169;50.560;9.714;2023-01-13T10:47:28;8.00;99.90
10249;DHT22;5169;50.560;9.714;2023-01-13T10:52:33;8.20;99.90
10249;DHT22;5169;50.560;9.714;2023-01-13T10:55:02;8.30;99.90
10249;DHT22;5169;50.560;9.714;2023-01-13T10:57:35;8.50;99.90
10249;DHT22;5169;50.560;9.714;2023-01-13T11:00:27;8.70;99.90
10249;DHT22;5169;50.560;9.714;2023-01-13T11:03:21;9.60;99.90
10249;DHT22;5169;50.560;9.714;2023-01-13T11:05:56;9.70;99.90
10249;DHT22;5169;50.560;9.714;2023-01-13T11:08:25;9.40;99.90
10249;DHT22;5169;50.560;9.714;2023-01-13T11:10:58;10.00;99.90
10249;DHT22;5169;50.560;9.714;2023-01-13T11:13:38;10.90;99.90
10249;DHT22;5169;50.560;9.714;2023-01-13T11:16:32;12.00;99.90
10249;DHT22;5169;50.560;9.714;2023-01-13T11:19:04;12.60;99.90
10249;DHT22;5169;50.560;9.714;2023-01-13T11:22:15;13.40;99.90
10249;DHT22;5169;50.560;9.714;2023-01-13T11:27:52;15.20;99.90
10249;DHT22;5169;50.560;9.714;2023-01-13T11:30:41;14.90;99.90
10249;DHT22;5169;50.560;9.714;2023-01-13T11:35:41;12.60;99.90
10249;DHT22;5169;50.560;9.714;2023-01-13T11:38:45;11.70;99.90
10249;DHT22;5169;50.560;9.714;2023-01-13T11:41:26;11.20;99.90
10249;DHT22;5169;50.560;9.714;2023-01-13T11:44:35;10.50;99.90
10249;DHT22;5169;50.560;9.714;2023-01-13T11:47:02;9.70;99.90
10249;DHT22;5169;50.560;9.714;2023-01-13T11:49:32;9.30;99.90
10249;DHT22;5169;50.560;9.714;2023-01-13T11:52:22;9.10;99.90
10249;DHT22;5169;50.560;9.714;2023-01-13T11:55:15;9.00;99.90
10249;DHT22;5169;50.560;9.714;2023-01-13T11:58:03;9.80;99.90
10249;DHT22;5169;50.560;9.714;2023-01-13T12:15:01;13.40;99.90
10249;DHT22;5169;50.560;9.714;2023-01-13T12:20:42;14.10;99.90
10249;DHT22;5169;50.560;9.714;2023-01-13T12:25:55;14.90;99.20
10249;DHT22;5169;50.560;9.714;2023-01-13T12:31:17;13.50;99.90
10249;DHT22;5169;50.560;9.714;2023-01-13T12:37:20;11.80;99.90
10249;DHT22;5169;50.560;9.714;2023-01-13T12:40:18;10.80;99.90
10249;DHT22;5169;50.560;9.714;2023-01-13T12:54:00;13.30;99.90
10249;DHT22;5169;50.560;9.714;2023-01-13T12:56:50;13.70;99.90
10249;DHT22;5169;50.560;9.714;2023-01-13T13:01:51;11.90;99.90
10249;DHT22;5169;50.560;9.714;2023-01-13T13:07:30;10.40;99.90
10249;DHT22;5169;50.560;9.714;2023-01-13T13:10:17;10.10;99.90
10249;DHT22;5169;50.560;9.714;2023-01-13T13:13:04;9.90;99.90
10249;DHT22;5169;50.560;9.714;2023-01-13T13:15:49;9.60;99.90
10249;DHT22;5169;50.560;9.714;2023-01-13T13:23:34;9.60;99.90
10249;DHT22;5169;50.560;9.714;2023-01-13T13:40:57;9.30;99.90
10249;DHT22;5169;50.560;9.714;2023-01-13T13:43:47;9.20;99.90
10249;DHT22;5169;50.560;9.714;2023-01-13T13:46:43;9.20;99.90
10249;DHT22;5169;50.560;9.714;2023-01-13T13:49:36;9.20;99.90
10249;DHT22;5169;50.560;9.714;2023-01-13T13:55:04;9.40;99.90
10249;DHT22;5169;50.560;9.714;2023-01-13T13:57:39;9.50;99.90
10249;DHT22;5169;50.560;9.714;2023-01-13T14:00:24;9.60;99.90
10249;DHT22;5169;50.560;9.714;2023-01-13T14:02:54;9.70;99.90
10249;DHT22;5169;50.560;9.714;2023-01-13T14:05:29;9.70;99.90
10249;DHT22;5169;50.560;9.714;2023-01-13T14:10:41;9.20;99.90
10249;DHT22;5169;50.560;9.714;2023-01-13T14:13:30;9.10;99.90
10249;DHT22;5169;50.560;9.714;2023-01-13T14:16:05;9.10;99.90
10249;DHT22;5169;50.560;9.714;2023-01-13T14:18:34;9.10;99.90
10249;DHT22;5169;50.560;9.714;2023-01-13T14:21:26;9.20;99.90
10249;DHT22;5169;50.560;9.714;2023-01-13T14:24:08;9.20;99.90
10249;DHT22;5169;50.560;9.714;2023-01-13T14:26:38;9.30;99.90
10249;DHT22;5169;50.560;9.714;2023-01-13T14:29:04;9.20;99.90
10249;DHT22;5169;50.560;9.714;2023-01-13T14:31:31;9.20;99.90
10249;DHT22;5169;50.560;9.714;2023-01-13T14:34:02;9.10;99.90
10249;DHT22;5169;50.560;9.714;2023-01-13T14:44:27;8.60;99.90
10249;DHT22;5169;50.560;9.714;2023-01-13T14:47:03;8.60;99.90
10249;DHT22;5169;50.560;9.714;2023-01-13T14:50:18;8.40;99.90
10249;DHT22;5169;50.560;9.714;2023-01-13T14:53:23;8.20;99.90
10249;DHT22;5169;50.560;9.714;2023-01-13T14:55:49;8.10;99.90
10249;DHT22;5169;50.560;9.714;2023-01-13T15:00:42;8.10;99.90
10249;DHT22;5169;50.560;9.714;2023-01-13T15:03:15;8.00;99.90
10249;DHT22;5169;50.560;9.714;2023-01-13T15:05:51;8.00;99.90
10249;DHT22;5169;50.560;9.714;2023-01-13T15:08:40;7.90;99.90
10249;DHT22;5169;50.560;9.714;2023-01-13T15:11:19;7.80;99.90
10249;DHT22;5169;50.560;9.714;2023-01-13T15:13:56;7.70;99.90
10249;DHT22;5169;50.560;9.714;2023-01-13T15:16:29;7.60;99.90
10249;DHT22;5169;50.560;9.714;2023-01-13T15:18:57;7.70;99.90
10249;DHT22;5169;50.560;9.714;2023-01-13T15:21:28;7.70;99.90
10249;DHT22;5169;50.560;9.714;2023-01-13T15:23:54;7.60;99.90
10249;DHT22;5169;50.560;9.714;2023-01-13T15:26:31;7.70;99.90
10249;DHT22;5169;50.560;9.714;2023-01-13T15:29:03;7.70;99.90
10249;DHT22;5169;50.560;9.714;2023-01-13T15:31:39;7.80;99.90
10249;DHT22;5169;50.560;9.714;2023-01-13T15:34:07;7.70;99.90
10249;DHT22;5169;50.560;9.714;2023-01-13T15:36:39;7.60;99.90
10249;DHT22;5169;50.560;9.714;2023-01-13T15:39:06;7.50;99.90
10249;DHT22;5169;50.560;9.714;2023-01-13T15:41:31;7.50;99.90
10249;DHT22;5169;50.560;9.714;2023-01-13T15:44:16;7.50;99.90
10249;DHT22;5169;50.560;9.714;2023-01-13T15:47:04;7.50;99.90
10249;DHT22;5169;50.560;9.714;2023-01-13T15:52:26;7.40;99.90
10249;DHT22;5169;50.560;9.714;2023-01-13T15:54:53;7.30;99.90
10249;DHT22;5169;50.560;9.714;2023-01-13T15:59:51;7.30;99.90
10249;DHT22;5169;50.560;9.714;2023-01-13T16:02:17;7.30;99.90
10249;DHT22;5169;50.560;9.714;2023-01-13T16:04:44;7.30;99.90
10249;DHT22;5169;50.560;9.714;2023-01-13T16:07:18;7.30;99.90
10249;DHT22;5169;50.560;9.714;2023-01-13T16:09:53;7.30;99.90
10249;DHT22;5169;50.560;9.714;2023-01-13T16:12:19;7.40;99.90
10249;DHT22;5169;50.560;9.714;2023-01-13T16:14:51;7.40;99.90
10249;DHT22;5169;50.560;9.714;2023-01-13T16:17:20;7.40;99.90
10249;DHT22;5169;50.560;9.714;2023-01-13T16:19:54;7.40;99.90
10249;DHT22;5169;50.560;9.714;2023-01-13T16:22:29;7.30;99.90
10249;DHT22;5169;50.560;9.714;2023-01-13T16:24:55;7.30;99.90
10249;DHT22;5169;50.560;9.714;2023-01-13T16:27:27;7.30;99.90
10249;DHT22;5169;50.560;9.714;2023-01-13T16:29:53;7.40;99.90
10249;DHT22;5169;50.560;9.714;2023-01-13T16:32:18;7.30;99.90
10249;DHT22;5169;50.560;9.714;2023-01-13T16:34:48;7.30;99.90
10249;DHT22;5169;50.560;9.714;2023-01-13T16:37:26;7.30;99.90
10249;DHT22;5169;50.560;9.714;2023-01-13T16:39:54;7.40;99.90
10249;DHT22;5169;50.560;9.714;2023-01-13T16:42:26;7.40;99.90
10249;DHT22;5169;50.560;9.714;2023-01-13T16:44:54;7.40;99.90
10249;DHT22;5169;50.560;9.714;2023-01-13T16:47:20;7.40;99.90
10249;DHT22;5169;50.560;9.714;2023-01-13T16:49:48;7.40;99.90
10249;DHT22;5169;50.560;9.714;2023-01-13T16:52:16;7.30;99.90
10249;DHT22;5169;50.560;9.714;2023-01-13T16:54:42;7.30;99.90
10249;DHT22;5169;50.560;9.714;2023-01-13T16:57:12;7.30;99.90
10249;DHT22;5169;50.560;9.714;2023-01-13T16:59:37;7.30;99.90
10249;DHT22;5169;50.560;9.714;2023-01-13T17:02:04;7.40;99.90
10249;DHT22;5169;50.560;9.714;2023-01-13T17:04:29;7.30;99.90
10249;DHT22;5169;50.560;9.714;2023-01-13T17:07:03;7.30;99.90
10249;DHT22;5169;50.560;9.714;2023-01-13T17:09:30;7.30;99.90
10249;DHT22;5169;50.560;9.714;2023-01-13T17:12:04;7.30;99.90
10249;DHT22;5169;50.560;9.714;2023-01-13T17:14:32;7.40;99.90
10249;DHT22;5169;50.560;9.714;2023-01-13T17:17:00;7.30;99.90
10249;DHT22;5169;50.560;9.714;2023-01-13T17:19:26;7.20;99.90
10249;DHT22;5169;50.560;9.714;2023-01-13T17:21:52;7.20;99.90
10249;DHT22;5169;50.560;9.714;2023-01-13T17:24:24;7.10;99.90
10249;DHT22;5169;50.560;9.714;2023-01-13T17:26:50;7.10;99.90
10249;DHT22;5169;50.560;9.714;2023-01-13T17:29:21;7.10;99.90
10249;DHT22;5169;50.560;9.714;2023-01-13T17:31:52;7.10;99.90
10249;DHT22;5169;50.560;9.714;2023-01-13T17:34:18;7.00;99.90
10249;DHT22;5169;50.560;9.714;2023-01-13T17:36:44;7.00;99.90
10249;DHT22;5169;50.560;9.714;2023-01-13T17:39:19;6.80;99.90
10249;DHT22;5169;50.560;9.714;2023-01-13T17:41:52;6.70;99.90
10249;DHT22;5169;50.560;9.714;2023-01-13T17:44:20;6.70;99.90
10249;DHT22;5169;50.560;9.714;2023-01-13T17:46:50;6.60;99.90
10249;DHT22;5169;50.560;9.714;2023-01-13T17:49:18;6.60;99.90
10249;DHT22;5169;50.560;9.714;2023-01-13T17:51:46;6.60;99.90
10249;DHT22;5169;50.560;9.714;2023-01-13T17:54:18;6.60;99.90
10249;DHT22;5169;50.560;9.714;2023-01-13T17:56:51;6.60;99.90
10249;DHT22;5169;50.560;9.714;2023-01-13T17:59:20;6.60;99.90
10249;DHT22;5169;50.560;9.714;2023-01-13T18:01:51;6.60;99.90
10249;DHT22;5169;50.560;9.714;2023-01-13T18:04:22;6.60;99.90
10249;DHT22;5169;50.560;9.714;2023-01-13T18:06:55;6.70;99.90
10249;DHT22;5169;50.560;9.714;2023-01-13T18:09:26;6.70;99.90
10249;DHT22;5169;50.560;9.714;2023-01-13T18:11:52;6.70;99.90
10249;DHT22;5169;50.560;9.714;2023-01-13T18:14:17;6.70;99.90
10249;DHT22;5169;50.560;9.714;2023-01-13T18:20:16;6.70;99.90
10249;DHT22;5169;50.560;9.714;2023-01-13T18:23:04;6.70;99.90
10249;DHT22;5169;50.560;9.714;2023-01-13T18:25:52;6.70;99.90
10249;DHT22;5169;50.560;9.714;2023-01-13T18:28:40;6.70;99.90
10249;DHT22;5169;50.560;9.714;2023-01-13T18:31:10;6.70;99.90
10249;DHT22;5169;50.560;9.714;2023-01-13T18:33:43;6.70;99.90
10249;DHT22;5169;50.560;9.714;2023-01-13T18:36:16;6.80;99.90
10249;DHT22;5169;50.560;9.714;2023-01-13T18:38:42;6.80;99.90
10249;DHT22;5169;50.560;9.714;2023-01-13T18:41:08;6.70;99.90
10249;DHT22;5169;50.560;9.714;2023-01-13T18:43:53;6.70;99.90
10249;DHT22;5169;50.560;9.714;2023-01-13T18:46:19;6.80;99.90
10249;DHT22;5169;50.560;9.714;2023-01-13T18:48:45;6.80;99.90
10249;DHT22;5169;50.560;9.714;2023-01-13T18:51:10;6.80;99.90
10249;DHT22;5169;50.560;9.714;2023-01-13T18:53:39;6.80;99.90
10249;DHT22;5169;50.560;9.714;2023-01-13T18:56:15;6.70;99.90
10249;DHT22;5169;50.560;9.714;2023-01-13T18:58:42;6.80;99.90
10249;DHT22;5169;50.560;9.714;2023-01-13T19:01:20;6.70;99.90
10249;DHT22;5169;50.560;9.714;2023-01-13T19:03:55;6.80;99.90
10249;DHT22;5169;50.560;9.714;2023-01-13T19:06:21;6.70;99.90
10249;DHT22;5169;50.560;9.714;2023-01-13T19:08:52;6.80;99.90
10249;DHT22;5169;50.560;9.714;2023-01-13T19:11:29;6.70;99.90
10249;DHT22;5169;50.560;9.714;2023-01-13T19:13:55;6.70;99.90
10249;DHT22;5169;50.560;9.714;2023-01-13T19:16:22;6.80;99.90
10249;DHT22;5169;50.560;9.714;2023-01-13T19:18:48;6.70;99.90
10249;DHT22;5169;50.560;9.714;2023-01-13T19:21:14;6.70;99.90
10249;DHT22;5169;50.560;9.714;2023-01-13T19:23:40;6.70;99.90